createdAt,value
2016-06-21T00:02:09.646Z,15.6
2016-06-21T00:05:27.160Z,15.6
2016-06-21T00:08:31.153Z,15.6
2016-06-21T00:11:43.166Z,15.6
2016-06-21T00:14:56.959Z,15.6
2016-06-21T00:18:10.854Z,15.6
2016-06-21T00:21:29.766Z,15.6
2016-06-21T00:24:33.737Z,15.6
2016-06-21T00:27:47.519Z,15.6
2016-06-21T00:31:01.110Z,15.6
2016-06-21T00:34:14.112Z,15.5
2016-06-21T00:37:32.671Z,15.5
2016-06-21T00:40:36.594Z,15.5
2016-06-21T00:43:50.133Z,15.5
2016-06-21T00:47:01.438Z,15.5
2016-06-21T00:50:15.288Z,15.5
2016-06-21T00:53:28.730Z,15.4
2016-06-21T00:56:42.349Z,15.4
2016-06-21T00:59:54.766Z,15.4
2016-06-21T01:03:08.408Z,15.3
2016-06-21T01:06:27.034Z,15.3
2016-06-21T01:09:31.050Z,15.3
2016-06-21T01:12:44.830Z,15.3
2016-06-21T01:15:58.299Z,15.3
2016-06-21T01:19:12.062Z,15.2
2016-06-21T01:22:30.550Z,15.2
2016-06-21T01:25:34.463Z,15.2
2016-06-21T01:28:48.219Z,15.2
2016-06-21T01:32:01.809Z,15.2
2016-06-21T01:35:15.513Z,15.2
2016-06-21T01:38:29.388Z,15.2
2016-06-21T01:41:40.839Z,15.2
2016-06-21T01:44:54.433Z,15.1
2016-06-21T01:48:08.055Z,15.1
2016-06-21T01:51:26.513Z,15.1
2016-06-21T01:54:30.355Z,15.1
2016-06-21T01:57:43.947Z,15
2016-06-21T02:00:57.565Z,15
2016-06-21T02:04:11.091Z,15
2016-06-21T02:07:29.806Z,15
2016-06-21T02:10:33.742Z,15
2016-06-21T02:13:47.463Z,15
2016-06-21T02:17:01.027Z,14.9
2016-06-21T02:20:14.617Z,15
2016-06-21T02:23:30.867Z,14.9
2016-06-21T02:26:34.755Z,14.9
2016-06-21T02:29:48.432Z,14.9
2016-06-21T02:33:02.099Z,14.9
2016-06-21T02:36:15.158Z,14.9
2016-06-21T02:39:28.066Z,14.9
2016-06-21T02:42:41.487Z,14.8
2016-06-21T02:45:55.078Z,14.8
2016-06-21T02:49:08.800Z,14.8
2016-06-21T02:52:27.552Z,14.8
2016-06-21T02:55:31.437Z,14.8
2016-06-21T02:58:45.267Z,14.8
2016-06-21T03:01:58.965Z,14.8
2016-06-21T03:05:12.807Z,14.7
2016-06-21T03:08:31.474Z,14.7
2016-06-21T03:11:33.589Z,14.7
2016-06-21T03:14:49.199Z,14.7
2016-06-21T03:18:03.425Z,14.7
2016-06-21T03:21:16.703Z,14.6
2016-06-21T03:24:30.405Z,14.6
2016-06-21T03:27:44.072Z,14.6
2016-06-21T03:30:55.607Z,14.6
2016-06-21T03:34:11.011Z,14.5
2016-06-21T03:37:29.763Z,14.5
2016-06-21T03:40:31.802Z,14.5
2016-06-21T03:43:47.532Z,14.5
2016-06-21T03:47:01.094Z,14.4
2016-06-21T03:50:14.447Z,14.4
2016-06-21T03:53:28.442Z,14.4
2016-06-21T03:56:38.780Z,14.3
2016-06-21T03:59:54.394Z,14.3
2016-06-21T04:03:06.246Z,14.3
2016-06-21T04:06:25.019Z,14.3
2016-06-21T04:09:28.870Z,14.3
2016-06-21T04:12:42.443Z,14.3
2016-06-21T04:15:56.268Z,14.2
2016-06-21T04:19:09.823Z,14.2
2016-06-21T04:22:25.353Z,14.2
2016-06-21T04:25:29.265Z,14.2
2016-06-21T04:28:43.039Z,14.1
2016-06-21T04:31:56.448Z,14.1
2016-06-21T04:35:10.174Z,14.1
2016-06-21T04:38:28.215Z,14.1
2016-06-21T04:41:32.178Z,14.1
2016-06-21T04:44:45.995Z,14.1
2016-06-21T04:47:59.524Z,14
2016-06-21T04:51:10.086Z,13.9
2016-06-21T04:54:28.695Z,13.9
2016-06-21T04:57:32.713Z,13.9
2016-06-21T05:00:46.289Z,13.9
2016-06-21T05:03:59.939Z,13.9
2016-06-21T05:07:13.670Z,13.8
2016-06-21T05:10:29.029Z,13.8
2016-06-21T05:13:32.876Z,13.7
2016-06-21T05:16:46.641Z,13.7
2016-06-21T05:20:00.208Z,13.7
2016-06-21T05:23:13.899Z,13.6
2016-06-21T05:26:32.270Z,13.6
2016-06-21T05:29:36.503Z,13.6
2016-06-21T05:32:50.176Z,13.6
2016-06-21T05:36:03.439Z,13.6
2016-06-21T05:39:17.106Z,13.7
2016-06-21T05:42:30.905Z,13.7
2016-06-21T05:45:42.435Z,13.8
2016-06-21T05:48:54.073Z,13.8
2016-06-21T05:52:09.911Z,13.7
2016-06-21T05:55:28.441Z,13.8
2016-06-21T05:58:32.292Z,13.8
2016-06-21T06:01:46.027Z,13.8
2016-06-21T06:04:59.583Z,13.9
2016-06-21T06:08:13.041Z,13.9
2016-06-21T06:11:31.639Z,14
2016-06-21T06:14:35.609Z,14.1
2016-06-21T06:17:48.704Z,14.1
2016-06-21T06:21:02.432Z,14.2
2016-06-21T06:24:16.227Z,14.3
2016-06-21T06:27:29.912Z,14.4
2016-06-21T06:30:43.341Z,14.5
2016-06-21T06:33:57.149Z,14.6
2016-06-21T06:37:11.099Z,14.6
2016-06-21T06:40:30.054Z,14.7
2016-06-21T06:43:34.053Z,14.8
2016-06-21T06:46:47.827Z,14.9
2016-06-21T06:50:01.444Z,15.1
2016-06-21T06:53:15.214Z,15.2
2016-06-21T06:56:28.844Z,15.2
2016-06-21T06:59:42.461Z,15.2
2016-06-21T07:02:56.345Z,15.3
2016-06-21T07:06:07.494Z,15.2
2016-06-21T07:09:28.442Z,15.2
2016-06-21T07:12:32.655Z,15.2
2016-06-21T07:15:44.312Z,15.2
2016-06-21T07:18:54.763Z,15.2
2016-06-21T07:22:08.157Z,15.1
2016-06-21T07:25:26.905Z,15.1
2016-06-21T07:28:30.988Z,15
2016-06-21T07:31:44.857Z,15
2016-06-21T07:34:58.756Z,14.9
2016-06-21T07:38:12.149Z,14.9
2016-06-21T07:41:30.899Z,14.9
2016-06-21T07:44:34.874Z,14.9
2016-06-21T07:47:48.203Z,14.9
2016-06-21T07:51:01.347Z,14.9
2016-06-21T07:54:15.194Z,15
2016-06-21T07:57:29.146Z,15.1
2016-06-21T08:00:43.219Z,15.2
2016-06-21T08:03:57.079Z,15.5
2016-06-21T08:07:10.753Z,15.8
2016-06-21T08:10:29.829Z,16.1
2016-06-21T08:13:34.195Z,16.1
2016-06-21T08:16:44.295Z,16.1
2016-06-21T08:19:58.040Z,16
2016-06-21T08:23:10.339Z,15.8
2016-06-21T08:26:29.048Z,15.8
2016-06-21T08:29:33.133Z,15.8
2016-06-21T08:32:47.019Z,15.8
2016-06-21T08:36:01.047Z,16
2016-06-21T08:39:14.973Z,16.3
2016-06-21T08:42:29.256Z,16.5
2016-06-21T08:45:43.373Z,16.4
2016-06-21T08:48:53.634Z,16.2
2016-06-21T08:52:06.873Z,16
2016-06-21T08:55:25.753Z,15.8
2016-06-21T08:58:30.026Z,15.8
2016-06-21T09:01:44.266Z,16.2
2016-06-21T09:04:57.338Z,16.7
2016-06-21T09:08:10.854Z,17
2016-06-21T09:11:29.692Z,17.3
2016-06-21T09:14:34.233Z,17.5
2016-06-21T09:17:47.734Z,17.6
2016-06-21T09:21:01.365Z,18.2
2016-06-21T09:24:15.573Z,18.9
2016-06-21T09:27:29.105Z,18.6
2016-06-21T09:30:42.883Z,17.8
2016-06-21T09:33:56.230Z,17.2
2016-06-21T09:37:09.554Z,16.5
2016-06-21T09:40:27.639Z,16.1
2016-06-21T09:43:31.701Z,16
2016-06-21T09:46:45.320Z,16
2016-06-21T09:49:59.195Z,16.2
2016-06-21T09:53:12.790Z,16.3
2016-06-21T09:56:31.355Z,16.5
2016-06-21T09:59:35.692Z,16.6
2016-06-21T10:02:49.036Z,16.5
2016-06-21T10:06:02.346Z,16.4
2016-06-21T10:09:16.165Z,16.3
2016-06-21T10:12:30.347Z,16.4
2016-06-21T10:15:42.288Z,16.5
2016-06-21T10:18:56.206Z,16.7
2016-06-21T10:22:10.330Z,16.9
2016-06-21T10:25:29.633Z,17.3
2016-06-21T10:28:34.039Z,17.4
2016-06-21T10:31:48.151Z,17.5
2016-06-21T10:35:02.301Z,17.7
2016-06-21T10:38:16.527Z,17.8
2016-06-21T10:41:30.734Z,18
2016-06-21T10:44:44.926Z,17.9
2016-06-21T10:47:58.755Z,17.9
2016-06-21T10:51:12.543Z,17.9
2016-06-21T10:54:30.532Z,17.9
2016-06-21T10:57:35.378Z,17.9
2016-06-21T11:00:49.197Z,17.9
2016-06-21T11:04:03.405Z,18
2016-06-21T11:07:17.598Z,18.1
2016-06-21T11:10:29.580Z,18.1
2016-06-21T11:13:43.622Z,18.1
2016-06-21T11:16:55.788Z,18.1
2016-06-21T11:20:10.022Z,18.3
2016-06-21T11:23:29.342Z,18.6
2016-06-21T11:26:33.873Z,18.8
2016-06-21T11:29:48.253Z,18.9
2016-06-21T11:33:02.504Z,18.9
2016-06-21T11:36:16.749Z,19
2016-06-21T11:39:30.754Z,19.1
2016-06-21T11:42:44.768Z,19.1
2016-06-21T11:45:59.046Z,19.1
2016-06-21T11:49:13.452Z,19.2
2016-06-21T11:52:32.644Z,19.2
2016-06-21T11:55:37.266Z,19.3
2016-06-21T11:58:49.390Z,19.3
2016-06-21T12:02:03.723Z,19.1
2016-06-21T12:05:17.882Z,19
2016-06-21T12:08:35.955Z,18.9
2016-06-21T12:11:44.139Z,18.9
2016-06-21T12:14:58.177Z,18.9
2016-06-21T12:18:12.513Z,18.8
2016-06-21T12:21:31.352Z,18.7
2016-06-21T12:24:35.806Z,18.7
2016-06-21T12:27:49.827Z,18.6
2016-06-21T12:31:03.920Z,18.6
2016-06-21T12:34:18.037Z,18.5
2016-06-21T12:37:32.184Z,18.5
2016-06-21T12:40:46.247Z,18.5
2016-06-21T12:44:00.593Z,18.6
2016-06-21T12:47:12.486Z,18.7
2016-06-21T12:50:31.759Z,18.9
2016-06-21T12:53:36.395Z,19
2016-06-21T12:56:47.836Z,19.1
2016-06-21T13:00:02.183Z,19.2
2016-06-21T13:03:16.282Z,19.3
2016-06-21T13:06:30.587Z,19.4
2016-06-21T13:09:44.798Z,19.3
2016-06-21T13:12:58.978Z,19.3
2016-06-21T13:16:13.105Z,19.2
2016-06-21T13:19:32.315Z,19.1
2016-06-21T13:22:36.698Z,19
2016-06-21T13:25:50.879Z,19
2016-06-21T13:29:05.085Z,18.9
2016-06-21T13:32:24.171Z,18.8
2016-06-21T13:35:28.636Z,18.7
2016-06-21T13:38:42.830Z,18.7
2016-06-21T13:41:55.654Z,18.8
2016-06-21T13:45:08.019Z,18.8
2016-06-21T13:48:27.252Z,18.8
2016-06-21T13:51:31.778Z,18.8
2016-06-21T13:54:46.005Z,18.8
2016-06-21T13:57:58.861Z,18.9
2016-06-21T14:01:13.014Z,19
2016-06-21T14:04:32.106Z,19
2016-06-21T14:07:36.498Z,19.1
2016-06-21T14:10:50.714Z,19.2
2016-06-21T14:13:59.159Z,19.3
2016-06-21T14:17:15.434Z,19.3
2016-06-21T14:20:31.364Z,19.3
2016-06-21T14:23:35.855Z,19.4
2016-06-21T14:26:48.987Z,19.4
2016-06-21T14:30:03.264Z,19.5
2016-06-21T14:33:17.598Z,19.6
2016-06-21T14:36:28.835Z,19.6
2016-06-21T14:39:45.139Z,19.7
2016-06-21T14:42:59.328Z,19.8
2016-06-21T14:46:13.642Z,19.8
2016-06-21T14:49:33.011Z,19.8
2016-06-21T14:52:37.671Z,19.7
2016-06-21T14:55:51.994Z,19.7
2016-06-21T14:59:05.952Z,19.5
2016-06-21T15:02:25.267Z,19.5
2016-06-21T15:05:29.783Z,19.6
2016-06-21T15:08:40.714Z,19.7
2016-06-21T15:11:54.915Z,19.7
2016-06-21T15:15:09.365Z,19.7
2016-06-21T15:18:28.769Z,19.8
2016-06-21T15:21:33.424Z,19.8
2016-06-21T15:24:47.519Z,19.7
2016-06-21T15:28:01.862Z,19.7
2016-06-21T15:31:15.951Z,19.7
2016-06-21T15:34:30.211Z,19.7
2016-06-21T15:37:44.599Z,19.6
2016-06-21T15:40:58.943Z,19.5
2016-06-21T15:44:13.284Z,19.5
2016-06-21T15:47:32.550Z,19.5
2016-06-21T15:50:37.152Z,19.5
2016-06-21T15:53:48.647Z,19.5
2016-06-21T15:57:02.779Z,19.5
2016-06-21T16:00:16.633Z,19.4
2016-06-21T16:03:33.374Z,19.3
2016-06-21T16:06:37.972Z,19.3
2016-06-21T16:09:52.364Z,19.3
2016-06-21T16:13:06.722Z,19.3
2016-06-21T16:16:25.783Z,19.2
2016-06-21T16:19:30.292Z,19.3
2016-06-21T16:22:44.624Z,19.3
2016-06-21T16:25:58.783Z,19.3
2016-06-21T16:29:13.201Z,19.3
2016-06-21T16:32:32.341Z,19.3
2016-06-21T16:35:37.064Z,19.3
2016-06-21T16:38:51.124Z,19.3
2016-06-21T16:42:05.255Z,19.4
2016-06-21T16:45:24.415Z,19.4
2016-06-21T16:48:29.070Z,19.4
2016-06-21T16:51:41.987Z,19.4
2016-06-21T16:54:56.138Z,19.5
2016-06-21T16:58:10.570Z,19.5
2016-06-21T17:01:30.023Z,19.5
2016-06-21T17:04:34.519Z,19.5
2016-06-21T17:07:48.466Z,19.4
2016-06-21T17:11:02.895Z,19.4
2016-06-21T17:14:16.922Z,19.3
2016-06-21T17:17:28.806Z,19.3
2016-06-21T17:20:39.798Z,19.3
2016-06-21T17:23:54.307Z,19.3
2016-06-21T17:27:07.428Z,19.2
2016-06-21T17:30:26.361Z,19.2
2016-06-21T17:33:30.968Z,19.3
2016-06-21T17:36:44.919Z,19.3
2016-06-21T17:39:59.314Z,19.3
2016-06-21T17:43:13.648Z,19.3
2016-06-21T17:46:32.827Z,19.3
2016-06-21T17:49:37.448Z,19.3
2016-06-21T17:52:51.798Z,19.3
2016-06-21T17:56:03.584Z,19.3
2016-06-21T17:59:17.833Z,19.3
2016-06-21T18:02:31.868Z,19.2
2016-06-21T18:05:46.254Z,19.2
2016-06-21T18:09:00.382Z,19.1
2016-06-21T18:12:14.629Z,19.1
2016-06-21T18:15:33.767Z,19.1
2016-06-21T18:18:38.343Z,19
2016-06-21T18:21:49.176Z,19
2016-06-21T18:25:03.246Z,18.9
2016-06-21T18:28:17.347Z,18.9
2016-06-21T18:31:31.364Z,18.8
2016-06-21T18:34:45.811Z,18.8
2016-06-21T18:37:57.806Z,18.8
2016-06-21T18:41:11.923Z,18.8
2016-06-21T18:44:31.194Z,18.7
2016-06-21T18:47:35.687Z,18.7
2016-06-21T18:50:49.938Z,18.6
2016-06-21T18:54:01.826Z,18.6
2016-06-21T18:57:16.142Z,18.6
2016-06-21T19:00:30.363Z,18.5
2016-06-21T19:03:42.401Z,18.3
2016-06-21T19:06:58.264Z,18.1
2016-06-21T19:10:12.076Z,17.9
2016-06-21T19:13:30.403Z,17.8
2016-06-21T19:16:34.718Z,17.6
2016-06-21T19:19:45.626Z,17.5
2016-06-21T19:22:57.266Z,17.4
2016-06-21T19:26:13.490Z,17.3
2016-06-21T19:29:29.218Z,17.2
2016-06-21T19:32:33.417Z,17.1
2016-06-21T19:35:47.521Z,17.1
2016-06-21T19:39:01.798Z,17
2016-06-21T19:42:16.510Z,17
2016-06-21T19:45:29.574Z,16.9
2016-06-21T19:48:41.925Z,16.8
2016-06-21T19:51:54.014Z,16.8
2016-06-21T19:55:07.771Z,16.8
2016-06-21T19:58:28.648Z,16.7
2016-06-21T20:01:32.885Z,16.6
2016-06-21T20:04:46.653Z,16.6
2016-06-21T20:08:00.355Z,16.5
2016-06-21T20:11:14.248Z,16.5
2016-06-21T20:14:33.167Z,16.4
2016-06-21T20:17:37.386Z,16.4
2016-06-21T20:20:49.951Z,16.3
2016-06-21T20:24:03.751Z,16.3
2016-06-21T20:27:17.573Z,16.2
2016-06-21T20:30:29.302Z,16.2
2016-06-21T20:33:45.283Z,16.1
2016-06-21T20:36:59.230Z,16.1
2016-06-21T20:40:13.109Z,16.1
2016-06-21T20:43:31.901Z,16
2016-06-21T20:46:36.026Z,16
2016-06-21T20:49:46.601Z,16
2016-06-21T20:53:00.677Z,15.9
2016-06-21T20:56:14.075Z,15.9
2016-06-21T20:59:32.221Z,15.8
2016-06-21T21:02:36.345Z,15.8
2016-06-21T21:05:49.139Z,15.8
2016-06-21T21:08:59.029Z,15.8
2016-06-21T21:12:13.004Z,15.8
2016-06-21T21:15:32.384Z,15.8
2016-06-21T21:18:36.698Z,15.7
2016-06-21T21:21:46.321Z,15.7
2016-06-21T21:25:02.185Z,15.7
2016-06-21T21:28:15.952Z,15.6
2016-06-21T21:31:29.780Z,15.6
2016-06-21T21:34:43.713Z,15.6
2016-06-21T21:37:57.854Z,15.6
2016-06-21T21:41:11.214Z,15.5
2016-06-21T21:44:30.062Z,15.5
2016-06-21T21:47:34.185Z,15.4
2016-06-21T21:50:48.163Z,15.4
2016-06-21T21:54:01.922Z,15.3
2016-06-21T21:57:14.334Z,15.3
2016-06-21T22:00:30.836Z,15.3
2016-06-21T22:03:35.051Z,15.3
2016-06-21T22:06:47.614Z,15.2
2016-06-21T22:10:00.770Z,15.2
2016-06-21T22:13:12.115Z,15.2
2016-06-21T22:16:30.810Z,15.2
2016-06-21T22:19:34.832Z,15.2
2016-06-21T22:22:48.636Z,15.2
2016-06-21T22:26:02.385Z,15.1
2016-06-21T22:29:16.112Z,15.1
2016-06-21T22:32:33.668Z,15.1
2016-06-21T22:35:37.779Z,15.1
2016-06-21T22:38:51.462Z,15.1
2016-06-21T22:42:05.362Z,15
2016-06-21T22:45:19.155Z,15
2016-06-21T22:48:32.622Z,15
2016-06-21T22:51:44.950Z,14.9
2016-06-21T22:54:54.613Z,14.9
2016-06-21T22:58:06.438Z,14.9
2016-06-21T23:01:26.806Z,14.9
2016-06-21T23:04:30.634Z,14.8
2016-06-21T23:07:44.239Z,14.8
2016-06-21T23:10:57.714Z,14.8
2016-06-21T23:14:11.303Z,14.8
2016-06-21T23:17:29.263Z,14.7
2016-06-21T23:20:33.187Z,14.7
2016-06-21T23:23:47.085Z,14.7
2016-06-21T23:27:00.955Z,14.6
2016-06-21T23:30:14.263Z,14.6
2016-06-21T23:33:30.721Z,14.6
2016-06-21T23:36:34.834Z,14.6
2016-06-21T23:39:48.634Z,14.6
2016-06-21T23:43:02.428Z,14.6
2016-06-21T23:46:16.142Z,14.5
2016-06-21T23:49:34.810Z,14.5
2016-06-21T23:52:38.757Z,14.5
2016-06-21T23:55:52.257Z,14.5
2016-06-21T23:59:06.025Z,14.5
